Algonquin Island, Ontario

11:27 PM EDT on June 24, 2017 (GMT -0400)
Rapids Queen at QCYC | | Change Station

Elev 252 ft 43.63 °N, 79.36 °W | Updated 8 minutes ago

Clear
Clear
66.4 °F
Feels Like 66.4 °F
N
5.0
Wind Variable Wind from SW

Today
High -- | Low -- °F
--% Chance of Precip.
Yesterday
High -- | Low -- °F
Precip. -- in
Pressure 29.91 in
Visibility 9.0 miles
Clouds Clear
Dew Point 53 °F
Humidity 62%
Rainfall 0.41 in
Snow Depth Not available.
5:36 AM 9:02 PM
New Moon, 2% visible
METAR CYTZ 250300Z AUTO 25006KT 9SM CLR 15/12 A2990 RMK SLP127 DENSITY ALT 300FT
Pressure 29.91 in
Visibility 9.0 miles
Clouds Clear
Dew Point 53 °F
Humidity 62%
Rainfall 0.41 in
Snow Depth Not available.
5:36 AM 9:02 PM
New Moon, 2% visible
METAR CYTZ 250300Z AUTO 25006KT 9SM CLR 15/12 A2990 RMK SLP127 DENSITY ALT 300FT

Get Severe Weather Alerts

Thanks for signing up!

Be on the lookout for a verification email in your inbox.

You'll start receiving the daily forecast at 6 AM.

×

10-Day Weather Forecast

Almanac

Astronomy

Jun. 24, 2017 Rise Set
Actual Time
Civil Twilight
Nautical Twilight
Astronomical Twilight
Moon
Length of Visible Light
Length of Day
Tomorrow will be .
, % of the Moon is Illuminated

Today's Extremes

Country Highs Country Lows

Community

WunderPhotos

Category 6

Welcome to Category 6. This is the collective home for Weather Underground's featured writeups by Dr. Jeff Masters (right), Bob Henson (left), Chris Burt, and other regular contributors.

Nearby

Air Quality

  Air Quality AQ Index Pollutant
Not available.

Snow Depth

Station Depth Elevation

Earthquake Activity

City Distance Mag. Time & Date
Minimum magnitude displayed is 2.5.

Coastal Water Temperatures

Place Temperature

Stations

Nearby Weather Stations

Station Location Temp. Windchill Dew Point Humidity Wind Precip. Elev Updated Type
                   

Watches & Warnings

There are currently no watches in effect.